sensor_id;sensor_type;location;lat;lon;timestamp;P1;durP1;ratioP1;P2;durP2;ratioP2
28796;SDS011;24974;54.444;18.560;2023-05-27T05:28:39;20.27;;;5.93;;
28796;SDS011;24974;54.444;18.560;2023-05-27T05:31:12;17.70;;;5.53;;
28796;SDS011;24974;54.444;18.560;2023-05-27T05:33:42;14.40;;;4.97;;
28796;SDS011;24974;54.444;18.560;2023-05-27T05:36:13;17.80;;;5.47;;
28796;SDS011;24974;54.444;18.560;2023-05-27T05:38:58;13.85;;;5.13;;
28796;SDS011;24974;54.444;18.560;2023-05-27T05:41:29;16.42;;;5.60;;
28796;SDS011;24974;54.444;18.560;2023-05-27T05:44:00;16.48;;;4.95;;
28796;SDS011;24974;54.444;18.560;2023-05-27T05:46:31;19.10;;;5.95;;
28796;SDS011;24974;54.444;18.560;2023-05-27T05:49:03;12.25;;;5.43;;
28796;SDS011;24974;54.444;18.560;2023-05-27T05:51:41;16.30;;;4.72;;
28796;SDS011;24974;54.444;18.560;2023-05-27T05:54:12;12.55;;;4.82;;
28796;SDS011;24974;54.444;18.560;2023-05-27T05:56:48;15.68;;;5.28;;
28796;SDS011;24974;54.444;18.560;2023-05-27T05:59:19;15.57;;;4.65;;
28796;SDS011;24974;54.444;18.560;2023-05-27T06:01:51;15.23;;;4.43;;
28796;SDS011;24974;54.444;18.560;2023-05-27T06:04:23;14.55;;;4.60;;
28796;SDS011;24974;54.444;18.560;2023-05-27T06:06:54;10.23;;;4.43;;
28796;SDS011;24974;54.444;18.560;2023-05-27T06:09:25;14.23;;;4.57;;
28796;SDS011;24974;54.444;18.560;2023-05-27T06:11:59;11.98;;;5.15;;
28796;SDS011;24974;54.444;18.560;2023-05-27T06:14:31;18.05;;;5.30;;
28796;SDS011;24974;54.444;18.560;2023-05-27T06:17:03;22.27;;;5.97;;
28796;SDS011;24974;54.444;18.560;2023-05-27T06:19:34;18.13;;;5.38;;
28796;SDS011;24974;54.444;18.560;2023-05-27T06:22:05;18.88;;;5.72;;
28796;SDS011;24974;54.444;18.560;2023-05-27T06:25:01;21.40;;;5.45;;
28796;SDS011;24974;54.444;18.560;2023-05-27T06:27:44;20.55;;;5.70;;
28796;SDS011;24974;54.444;18.560;2023-05-27T06:30:14;16.27;;;5.82;;
28796;SDS011;24974;54.444;18.560;2023-05-27T06:32:48;14.70;;;4.95;;
28796;SDS011;24974;54.444;18.560;2023-05-27T06:35:20;17.10;;;6.32;;
28796;SDS011;24974;54.444;18.560;2023-05-27T06:37:51;17.90;;;5.38;;
28796;SDS011;24974;54.444;18.560;2023-05-27T06:40:23;17.10;;;5.35;;
28796;SDS011;24974;54.444;18.560;2023-05-27T06:42:54;19.15;;;5.90;;
28796;SDS011;24974;54.444;18.560;2023-05-27T06:45:45;16.25;;;5.43;;
28796;SDS011;24974;54.444;18.560;2023-05-27T06:48:31;17.20;;;5.88;;
28796;SDS011;24974;54.444;18.560;2023-05-27T06:51:03;15.00;;;5.45;;
28796;SDS011;24974;54.444;18.560;2023-05-27T06:53:34;13.68;;;5.45;;
28796;SDS011;24974;54.444;18.560;2023-05-27T06:56:10;18.13;;;6.05;;
28796;SDS011;24974;54.444;18.560;2023-05-27T06:58:45;12.50;;;4.70;;
28796;SDS011;24974;54.444;18.560;2023-05-27T07:01:19;10.13;;;5.13;;
28796;SDS011;24974;54.444;18.560;2023-05-27T07:03:54;9.63;;;4.00;;
28796;SDS011;24974;54.444;18.560;2023-05-27T07:06:38;10.23;;;4.35;;
28796;SDS011;24974;54.444;18.560;2023-05-27T07:09:09;12.63;;;4.30;;
28796;SDS011;24974;54.444;18.560;2023-05-27T07:11:42;17.02;;;4.18;;
28796;SDS011;24974;54.444;18.560;2023-05-27T07:14:18;15.77;;;6.05;;
28796;SDS011;24974;54.444;18.560;2023-05-27T07:16:49;15.52;;;4.97;;
28796;SDS011;24974;54.444;18.560;2023-05-27T07:19:20;15.35;;;4.45;;
28796;SDS011;24974;54.444;18.560;2023-05-27T07:21:58;11.73;;;4.40;;
28796;SDS011;24974;54.444;18.560;2023-05-27T07:24:31;14.23;;;4.45;;
28796;SDS011;24974;54.444;18.560;2023-05-27T07:27:02;14.93;;;6.18;;
28796;SDS011;24974;54.444;18.560;2023-05-27T07:29:36;17.40;;;5.95;;
28796;SDS011;24974;54.444;18.560;2023-05-27T07:32:16;8.93;;;4.28;;
28796;SDS011;24974;54.444;18.560;2023-05-27T07:34:48;9.95;;;3.58;;
28796;SDS011;24974;54.444;18.560;2023-05-27T07:37:19;11.10;;;3.95;;
28796;SDS011;24974;54.444;18.560;2023-05-27T07:39:50;8.68;;;3.45;;
28796;SDS011;24974;54.444;18.560;2023-05-27T07:42:23;15.27;;;4.18;;
28796;SDS011;24974;54.444;18.560;2023-05-27T07:44:54;13.70;;;4.25;;
28796;SDS011;24974;54.444;18.560;2023-05-27T07:47:25;11.70;;;4.30;;
28796;SDS011;24974;54.444;18.560;2023-05-27T07:49:56;10.85;;;3.90;;
28796;SDS011;24974;54.444;18.560;2023-05-27T07:52:30;10.52;;;4.07;;
28796;SDS011;24974;54.444;18.560;2023-05-27T07:55:06;15.57;;;3.45;;
28796;SDS011;24974;54.444;18.560;2023-05-27T07:57:38;11.50;;;3.80;;
28796;SDS011;24974;54.444;18.560;2023-05-27T08:00:09;19.90;;;4.82;;
28796;SDS011;24974;54.444;18.560;2023-05-27T08:02:54;16.98;;;5.13;;
28796;SDS011;24974;54.444;18.560;2023-05-27T08:05:54;10.93;;;3.90;;
28796;SDS011;24974;54.444;18.560;2023-05-27T08:08:45;10.68;;;3.63;;
28796;SDS011;24974;54.444;18.560;2023-05-27T08:11:43;10.20;;;4.47;;
28796;SDS011;24974;54.444;18.560;2023-05-27T08:14:28;15.73;;;4.65;;
28796;SDS011;24974;54.444;18.560;2023-05-27T08:17:12;7.85;;;3.20;;
28796;SDS011;24974;54.444;18.560;2023-05-27T08:20:00;13.57;;;3.83;;
28796;SDS011;24974;54.444;18.560;2023-05-27T08:23:00;8.00;;;3.83;;
28796;SDS011;24974;54.444;18.560;2023-05-27T08:26:00;6.97;;;2.95;;
28796;SDS011;24974;54.444;18.560;2023-05-27T08:28:51;8.38;;;3.08;;
28796;SDS011;24974;54.444;18.560;2023-05-27T08:31:32;10.13;;;3.47;;
28796;SDS011;24974;54.444;18.560;2023-05-27T08:34:05;9.10;;;3.55;;
28796;SDS011;24974;54.444;18.560;2023-05-27T08:36:38;9.07;;;3.45;;
28796;SDS011;24974;54.444;18.560;2023-05-27T08:39:09;13.85;;;3.78;;
28796;SDS011;24974;54.444;18.560;2023-05-27T08:41:46;13.70;;;4.65;;
28796;SDS011;24974;54.444;18.560;2023-05-27T08:44:17;12.30;;;3.83;;
28796;SDS011;24974;54.444;18.560;2023-05-27T08:46:49;9.82;;;3.70;;
28796;SDS011;24974;54.444;18.560;2023-05-27T08:49:21;11.32;;;3.63;;
28796;SDS011;24974;54.444;18.560;2023-05-27T08:51:52;9.00;;;3.50;;
28796;SDS011;24974;54.444;18.560;2023-05-27T08:54:25;10.45;;;3.25;;
28796;SDS011;24974;54.444;18.560;2023-05-27T08:56:59;13.45;;;3.42;;
28796;SDS011;24974;54.444;18.560;2023-05-27T08:59:34;14.15;;;3.45;;
28796;SDS011;24974;54.444;18.560;2023-05-27T09:02:09;10.55;;;3.90;;
28796;SDS011;24974;54.444;18.560;2023-05-27T09:04:42;10.50;;;3.38;;
28796;SDS011;24974;54.444;18.560;2023-05-27T09:07:14;11.27;;;3.10;;
28796;SDS011;24974;54.444;18.560;2023-05-27T09:09:55;7.32;;;2.83;;
28796;SDS011;24974;54.444;18.560;2023-05-27T09:12:27;8.82;;;2.63;;
28796;SDS011;24974;54.444;18.560;2023-05-27T09:14:58;10.13;;;3.20;;
28796;SDS011;24974;54.444;18.560;2023-05-27T09:17:29;11.63;;;3.40;;
28796;SDS011;24974;54.444;18.560;2023-05-27T09:20:00;7.68;;;2.90;;
28796;SDS011;24974;54.444;18.560;2023-05-27T09:22:31;14.38;;;7.03;;
28796;SDS011;24974;54.444;18.560;2023-05-27T09:25:02;6.57;;;2.60;;
28796;SDS011;24974;54.444;18.560;2023-05-27T09:27:33;9.23;;;2.30;;
28796;SDS011;24974;54.444;18.560;2023-05-27T09:30:08;7.18;;;2.70;;
28796;SDS011;24974;54.444;18.560;2023-05-27T09:32:39;6.55;;;2.45;;
28796;SDS011;24974;54.444;18.560;2023-05-27T09:35:11;3.70;;;1.70;;
28796;SDS011;24974;54.444;18.560;2023-05-27T09:37:42;4.20;;;1.48;;
28796;SDS011;24974;54.444;18.560;2023-05-27T09:40:15;3.78;;;1.70;;
28796;SDS011;24974;54.444;18.560;2023-05-27T09:42:46;4.50;;;1.77;;
28796;SDS011;24974;54.444;18.560;2023-05-27T09:45:20;14.18;;;2.13;;
28796;SDS011;24974;54.444;18.560;2023-05-27T09:47:52;7.78;;;2.20;;
28796;SDS011;24974;54.444;18.560;2023-05-27T09:50:23;3.40;;;2.20;;
28796;SDS011;24974;54.444;18.560;2023-05-27T09:52:56;7.22;;;3.53;;
28796;SDS011;24974;54.444;18.560;2023-05-27T09:55:28;4.25;;;2.30;;
28796;SDS011;24974;54.444;18.560;2023-05-27T09:57:59;3.38;;;1.83;;
28796;SDS011;24974;54.444;18.560;2023-05-27T10:00:31;5.32;;;1.92;;
28796;SDS011;24974;54.444;18.560;2023-05-27T10:03:03;2.42;;;1.50;;
28796;SDS011;24974;54.444;18.560;2023-05-27T10:05:36;3.50;;;1.88;;
28796;SDS011;24974;54.444;18.560;2023-05-27T10:08:08;2.30;;;1.60;;
28796;SDS011;24974;54.444;18.560;2023-05-27T10:10:39;8.25;;;1.48;;
28796;SDS011;24974;54.444;18.560;2023-05-27T10:13:10;3.35;;;1.80;;
28796;SDS011;24974;54.444;18.560;2023-05-27T10:15:47;7.78;;;1.60;;
28796;SDS011;24974;54.444;18.560;2023-05-27T10:18:23;1.98;;;1.52;;
28796;SDS011;24974;54.444;18.560;2023-05-27T10:20:57;2.70;;;1.52;;
28796;SDS011;24974;54.444;18.560;2023-05-27T10:23:29;4.72;;;1.85;;
28796;SDS011;24974;54.444;18.560;2023-05-27T10:26:07;4.07;;;2.22;;
28796;SDS011;24974;54.444;18.560;2023-05-27T10:28:38;5.60;;;1.67;;
28796;SDS011;24974;54.444;18.560;2023-05-27T10:31:11;3.30;;;1.52;;
28796;SDS011;24974;54.444;18.560;2023-05-27T10:33:49;3.95;;;1.60;;
28796;SDS011;24974;54.444;18.560;2023-05-27T10:36:24;2.97;;;1.70;;
28796;SDS011;24974;54.444;18.560;2023-05-27T10:39:06;5.50;;;1.30;;
28796;SDS011;24974;54.444;18.560;2023-05-27T10:41:50;5.22;;;1.58;;
28796;SDS011;24974;54.444;18.560;2023-05-27T10:44:29;4.10;;;1.70;;
28796;SDS011;24974;54.444;18.560;2023-05-27T10:47:03;3.42;;;1.40;;
28796;SDS011;24974;54.444;18.560;2023-05-27T10:49:45;4.18;;;1.92;;
28796;SDS011;24974;54.444;18.560;2023-05-27T10:52:17;7.78;;;1.50;;
28796;SDS011;24974;54.444;18.560;2023-05-27T10:54:48;3.15;;;1.60;;
28796;SDS011;24974;54.444;18.560;2023-05-27T10:57:20;2.97;;;1.33;;
28796;SDS011;24974;54.444;18.560;2023-05-27T10:59:54;4.32;;;1.17;;
28796;SDS011;24974;54.444;18.560;2023-05-27T11:02:29;1.65;;;1.20;;
28796;SDS011;24974;54.444;18.560;2023-05-27T11:07:44;4.72;;;1.20;;
28796;SDS011;24974;54.444;18.560;2023-05-27T11:10:15;6.35;;;1.10;;
28796;SDS011;24974;54.444;18.560;2023-05-27T11:12:47;4.13;;;1.02;;
28796;SDS011;24974;54.444;18.560;2023-05-27T11:15:18;5.35;;;1.20;;
28796;SDS011;24974;54.444;18.560;2023-05-27T11:17:49;3.50;;;1.40;;
28796;SDS011;24974;54.444;18.560;2023-05-27T11:20:21;2.78;;;1.30;;
28796;SDS011;24974;54.444;18.560;2023-05-27T11:22:52;2.22;;;1.20;;
28796;SDS011;24974;54.444;18.560;2023-05-27T11:25:23;4.22;;;1.40;;
28796;SDS011;24974;54.444;18.560;2023-05-27T11:27:54;2.55;;;1.38;;
28796;SDS011;24974;54.444;18.560;2023-05-27T11:30:25;2.42;;;1.10;;
28796;SDS011;24974;54.444;18.560;2023-05-27T11:33:01;3.47;;;1.35;;
28796;SDS011;24974;54.444;18.560;2023-05-27T11:35:33;1.38;;;1.00;;
28796;SDS011;24974;54.444;18.560;2023-05-27T11:38:04;3.33;;;1.35;;
28796;SDS011;24974;54.444;18.560;2023-05-27T11:40:46;3.53;;;1.10;;
28796;SDS011;24974;54.444;18.560;2023-05-27T11:43:16;3.47;;;1.20;;
28796;SDS011;24974;54.444;18.560;2023-05-27T11:45:48;3.35;;;1.40;;
28796;SDS011;24974;54.444;18.560;2023-05-27T11:48:19;6.75;;;1.50;;
28796;SDS011;24974;54.444;18.560;2023-05-27T11:50:50;8.30;;;1.17;;
28796;SDS011;24974;54.444;18.560;2023-05-27T11:53:21;2.10;;;1.25;;
28796;SDS011;24974;54.444;18.560;2023-05-27T11:55:52;5.80;;;2.65;;
28796;SDS011;24974;54.444;18.560;2023-05-27T11:58:23;3.85;;;1.67;;
28796;SDS011;24974;54.444;18.560;2023-05-27T12:00:54;2.08;;;1.17;;
28796;SDS011;24974;54.444;18.560;2023-05-27T12:03:25;9.82;;;1.40;;
28796;SDS011;24974;54.444;18.560;2023-05-27T12:05:56;6.60;;;1.33;;
28796;SDS011;24974;54.444;18.560;2023-05-27T12:08:26;4.53;;;1.20;;
28796;SDS011;24974;54.444;18.560;2023-05-27T12:10:57;5.25;;;1.33;;
28796;SDS011;24974;54.444;18.560;2023-05-27T12:13:28;3.40;;;1.55;;
28796;SDS011;24974;54.444;18.560;2023-05-27T12:16:00;8.68;;;1.60;;
28796;SDS011;24974;54.444;18.560;2023-05-27T12:18:31;3.97;;;1.40;;
28796;SDS011;24974;54.444;18.560;2023-05-27T12:21:02;2.97;;;1.20;;
28796;SDS011;24974;54.444;18.560;2023-05-27T12:23:33;2.08;;;1.30;;
28796;SDS011;24974;54.444;18.560;2023-05-27T12:26:04;4.05;;;1.80;;
28796;SDS011;24974;54.444;18.560;2023-05-27T12:28:35;5.15;;;1.30;;
28796;SDS011;24974;54.444;18.560;2023-05-27T12:31:06;3.75;;;1.02;;
28796;SDS011;24974;54.444;18.560;2023-05-27T12:33:37;1.95;;;1.17;;
28796;SDS011;24974;54.444;18.560;2023-05-27T12:36:08;9.13;;;1.58;;
28796;SDS011;24974;54.444;18.560;2023-05-27T12:38:41;3.40;;;1.33;;
28796;SDS011;24974;54.444;18.560;2023-05-27T12:41:12;3.35;;;1.20;;
28796;SDS011;24974;54.444;18.560;2023-05-27T12:43:43;1.67;;;1.33;;
28796;SDS011;24974;54.444;18.560;2023-05-27T12:46:14;4.95;;;1.25;;
28796;SDS011;24974;54.444;18.560;2023-05-27T12:48:44;3.80;;;1.13;;
28796;SDS011;24974;54.444;18.560;2023-05-27T12:51:16;4.80;;;1.90;;
28796;SDS011;24974;54.444;18.560;2023-05-27T12:53:47;1.67;;;0.95;;
28796;SDS011;24974;54.444;18.560;2023-05-27T12:56:18;5.78;;;1.10;;
28796;SDS011;24974;54.444;18.560;2023-05-27T12:58:49;3.42;;;1.15;;
28796;SDS011;24974;54.444;18.560;2023-05-27T13:01:20;4.50;;;1.35;;
28796;SDS011;24974;54.444;18.560;2023-05-27T13:03:51;1.98;;;1.00;;
28796;SDS011;24974;54.444;18.560;2023-05-27T13:06:21;4.32;;;1.30;;
28796;SDS011;24974;54.444;18.560;2023-05-27T13:08:53;6.25;;;1.13;;
28796;SDS011;24974;54.444;18.560;2023-05-27T13:11:24;4.80;;;1.00;;
28796;SDS011;24974;54.444;18.560;2023-05-27T13:13:56;4.43;;;1.60;;
28796;SDS011;24974;54.444;18.560;2023-05-27T13:16:27;9.10;;;2.03;;
28796;SDS011;24974;54.444;18.560;2023-05-27T13:18:58;2.10;;;1.30;;
28796;SDS011;24974;54.444;18.560;2023-05-27T13:21:29;3.28;;;1.30;;
28796;SDS011;24974;54.444;18.560;2023-05-27T13:23:59;3.78;;;1.20;;
28796;SDS011;24974;54.444;18.560;2023-05-27T13:26:30;3.30;;;1.10;;
28796;SDS011;24974;54.444;18.560;2023-05-27T13:29:02;2.63;;;1.30;;
28796;SDS011;24974;54.444;18.560;2023-05-27T13:31:33;9.27;;;1.83;;
28796;SDS011;24974;54.444;18.560;2023-05-27T13:34:04;2.97;;;1.10;;
28796;SDS011;24974;54.444;18.560;2023-05-27T13:36:35;2.50;;;1.20;;
28796;SDS011;24974;54.444;18.560;2023-05-27T13:39:05;2.90;;;1.55;;
28796;SDS011;24974;54.444;18.560;2023-05-27T13:41:36;1.90;;;1.30;;
28796;SDS011;24974;54.444;18.560;2023-05-27T13:44:07;2.92;;;1.20;;
28796;SDS011;24974;54.444;18.560;2023-05-27T13:46:38;1.60;;;1.00;;
28796;SDS011;24974;54.444;18.560;2023-05-27T13:49:09;2.17;;;1.35;;
28796;SDS011;24974;54.444;18.560;2023-05-27T13:51:43;7.97;;;1.17;;
28796;SDS011;24974;54.444;18.560;2023-05-27T13:54:15;1.75;;;1.10;;
28796;SDS011;24974;54.444;18.560;2023-05-27T13:56:45;2.35;;;1.35;;
28796;SDS011;24974;54.444;18.560;2023-05-27T13:59:16;3.50;;;1.48;;
28796;SDS011;24974;54.444;18.560;2023-05-27T14:01:47;2.38;;;0.93;;
28796;SDS011;24974;54.444;18.560;2023-05-27T14:04:20;3.78;;;1.20;;
28796;SDS011;24974;54.444;18.560;2023-05-27T14:06:51;2.17;;;1.20;;
28796;SDS011;24974;54.444;18.560;2023-05-27T14:09:22;3.33;;;1.30;;
28796;SDS011;24974;54.444;18.560;2023-05-27T14:11:53;3.60;;;1.65;;
28796;SDS011;24974;54.444;18.560;2023-05-27T14:14:26;1.40;;;0.90;;
28796;SDS011;24974;54.444;18.560;2023-05-27T14:16:56;3.80;;;1.33;;
28796;SDS011;24974;54.444;18.560;2023-05-27T14:19:27;2.80;;;1.45;;
28796;SDS011;24974;54.444;18.560;2023-05-27T14:21:58;6.45;;;1.23;;
28796;SDS011;24974;54.444;18.560;2023-05-27T14:24:29;2.08;;;1.48;;
28796;SDS011;24974;54.444;18.560;2023-05-27T14:27:00;5.43;;;1.33;;
28796;SDS011;24974;54.444;18.560;2023-05-27T14:29:31;4.93;;;1.20;;
28796;SDS011;24974;54.444;18.560;2023-05-27T14:32:02;4.20;;;1.30;;
28796;SDS011;24974;54.444;18.560;2023-05-27T14:34:33;2.35;;;1.20;;
28796;SDS011;24974;54.444;18.560;2023-05-27T14:37:04;2.50;;;1.40;;
28796;SDS011;24974;54.444;18.560;2023-05-27T14:39:35;5.05;;;1.48;;
28796;SDS011;24974;54.444;18.560;2023-05-27T14:42:05;3.60;;;1.75;;
28796;SDS011;24974;54.444;18.560;2023-05-27T14:44:37;3.85;;;1.20;;
28796;SDS011;24974;54.444;18.560;2023-05-27T14:47:07;3.80;;;1.60;;
28796;SDS011;24974;54.444;18.560;2023-05-27T14:49:38;4.80;;;1.52;;
28796;SDS011;24974;54.444;18.560;2023-05-27T14:52:09;4.50;;;1.20;;
28796;SDS011;24974;54.444;18.560;2023-05-27T14:54:40;5.47;;;1.27;;
28796;SDS011;24974;54.444;18.560;2023-05-27T14:57:11;3.65;;;1.50;;
28796;SDS011;24974;54.444;18.560;2023-05-27T14:59:41;4.85;;;1.63;;
28796;SDS011;24974;54.444;18.560;2023-05-27T15:02:12;2.92;;;1.63;;
28796;SDS011;24974;54.444;18.560;2023-05-27T15:04:43;2.97;;;1.30;;
28796;SDS011;24974;54.444;18.560;2023-05-27T15:07:15;4.00;;;1.13;;
28796;SDS011;24974;54.444;18.560;2023-05-27T15:09:48;3.28;;;1.38;;
28796;SDS011;24974;54.444;18.560;2023-05-27T15:12:19;2.97;;;1.15;;
28796;SDS011;24974;54.444;18.560;2023-05-27T15:14:50;2.78;;;1.10;;
28796;SDS011;24974;54.444;18.560;2023-05-27T15:17:21;4.72;;;1.83;;
28796;SDS011;24974;54.444;18.560;2023-05-27T15:19:52;3.20;;;1.10;;
28796;SDS011;24974;54.444;18.560;2023-05-27T15:22:22;2.17;;;1.20;;
28796;SDS011;24974;54.444;18.560;2023-05-27T15:24:53;5.20;;;1.38;;
28796;SDS011;24974;54.444;18.560;2023-05-27T15:27:24;1.83;;;1.10;;
28796;SDS011;24974;54.444;18.560;2023-05-27T15:29:55;5.43;;;1.27;;
28796;SDS011;24974;54.444;18.560;2023-05-27T15:32:25;5.28;;;2.13;;
28796;SDS011;24974;54.444;18.560;2023-05-27T15:34:58;8.55;;;1.27;;
28796;SDS011;24974;54.444;18.560;2023-05-27T15:37:31;4.55;;;1.52;;
28796;SDS011;24974;54.444;18.560;2023-05-27T15:40:05;4.88;;;1.10;;
28796;SDS011;24974;54.444;18.560;2023-05-27T15:42:36;2.70;;;1.00;;
28796;SDS011;24974;54.444;18.560;2023-05-27T15:45:07;1.70;;;1.10;;
28796;SDS011;24974;54.444;18.560;2023-05-27T15:47:38;3.22;;;1.30;;
28796;SDS011;24974;54.444;18.560;2023-05-27T15:50:09;3.88;;;1.02;;
28796;SDS011;24974;54.444;18.560;2023-05-27T15:52:40;5.00;;;1.20;;
28796;SDS011;24974;54.444;18.560;2023-05-27T15:55:12;2.95;;;1.05;;
28796;SDS011;24974;54.444;18.560;2023-05-27T15:57:42;4.57;;;1.20;;
28796;SDS011;24974;54.444;18.560;2023-05-27T16:00:13;5.53;;;2.15;;
28796;SDS011;24974;54.444;18.560;2023-05-27T16:02:45;1.92;;;1.30;;
28796;SDS011;24974;54.444;18.560;2023-05-27T16:05:15;6.78;;;2.13;;
28796;SDS011;24974;54.444;18.560;2023-05-27T16:07:46;5.15;;;1.40;;
28796;SDS011;24974;54.444;18.560;2023-05-27T16:10:18;3.88;;;1.58;;
28796;SDS011;24974;54.444;18.560;2023-05-27T16:12:50;3.38;;;1.20;;
28796;SDS011;24974;54.444;18.560;2023-05-27T16:15:21;5.82;;;2.40;;
28796;SDS011;24974;54.444;18.560;2023-05-27T16:17:52;4.10;;;1.38;;
28796;SDS011;24974;54.444;18.560;2023-05-27T16:20:23;2.35;;;1.00;;
28796;SDS011;24974;54.444;18.560;2023-05-27T16:22:53;4.40;;;1.20;;
28796;SDS011;24974;54.444;18.560;2023-05-27T16:25:24;2.40;;;1.20;;
28796;SDS011;24974;54.444;18.560;2023-05-27T16:27:55;2.95;;;1.38;;
28796;SDS011;24974;54.444;18.560;2023-05-27T16:30:26;2.83;;;1.65;;
28796;SDS011;24974;54.444;18.560;2023-05-27T16:32:57;2.28;;;1.23;;
28796;SDS011;24974;54.444;18.560;2023-05-27T16:35:28;6.65;;;1.58;;
28796;SDS011;24974;54.444;18.560;2023-05-27T16:37:59;4.82;;;2.15;;
28796;SDS011;24974;54.444;18.560;2023-05-27T16:40:29;6.93;;;3.28;;
28796;SDS011;24974;54.444;18.560;2023-05-27T16:43:00;2.20;;;1.67;;
28796;SDS011;24974;54.444;18.560;2023-05-27T16:45:31;5.28;;;1.65;;
28796;SDS011;24974;54.444;18.560;2023-05-27T16:48:02;2.50;;;1.35;;
28796;SDS011;24974;54.444;18.560;2023-05-27T16:50:36;2.35;;;1.35;;
28796;SDS011;24974;54.444;18.560;2023-05-27T16:53:07;5.15;;;1.52;;
28796;SDS011;24974;54.444;18.560;2023-05-27T16:55:38;7.65;;;1.60;;
28796;SDS011;24974;54.444;18.560;2023-05-27T16:58:08;8.40;;;1.80;;
28796;SDS011;24974;54.444;18.560;2023-05-27T17:00:41;4.20;;;2.00;;
28796;SDS011;24974;54.444;18.560;2023-05-27T17:03:12;3.13;;;1.90;;
28796;SDS011;24974;54.444;18.560;2023-05-27T17:05:42;5.45;;;2.33;;
28796;SDS011;24974;54.444;18.560;2023-05-27T17:08:13;4.38;;;1.90;;
28796;SDS011;24974;54.444;18.560;2023-05-27T17:10:44;4.72;;;1.30;;
28796;SDS011;24974;54.444;18.560;2023-05-27T17:13:15;3.58;;;1.50;;
28796;SDS011;24974;54.444;18.560;2023-05-27T17:15:46;6.13;;;1.42;;
28796;SDS011;24974;54.444;18.560;2023-05-27T17:18:17;2.03;;;1.63;;
28796;SDS011;24974;54.444;18.560;2023-05-27T17:20:48;5.30;;;1.50;;
28796;SDS011;24974;54.444;18.560;2023-05-27T17:23:18;3.17;;;1.90;;
28796;SDS011;24974;54.444;18.560;2023-05-27T17:25:49;2.55;;;1.70;;
28796;SDS011;24974;54.444;18.560;2023-05-27T17:28:20;3.47;;;1.92;;
28796;SDS011;24974;54.444;18.560;2023-05-27T17:30:51;2.85;;;1.73;;
28796;SDS011;24974;54.444;18.560;2023-05-27T17:33:22;4.32;;;2.20;;
28796;SDS011;24974;54.444;18.560;2023-05-27T17:35:52;2.70;;;2.00;;
28796;SDS011;24974;54.444;18.560;2023-05-27T17:38:23;3.22;;;1.88;;
28796;SDS011;24974;54.444;18.560;2023-05-27T17:40:57;5.35;;;1.90;;
28796;SDS011;24974;54.444;18.560;2023-05-27T17:43:27;5.78;;;2.17;;
28796;SDS011;24974;54.444;18.560;2023-05-27T17:45:58;5.20;;;1.80;;
28796;SDS011;24974;54.444;18.560;2023-05-27T17:48:29;3.60;;;1.65;;
28796;SDS011;24974;54.444;18.560;2023-05-27T17:51:00;5.72;;;1.75;;
28796;SDS011;24974;54.444;18.560;2023-05-27T17:53:31;5.10;;;1.80;;
28796;SDS011;24974;54.444;18.560;2023-05-27T17:56:05;5.68;;;2.10;;
28796;SDS011;24974;54.444;18.560;2023-05-27T17:58:36;2.20;;;1.75;;
28796;SDS011;24974;54.444;18.560;2023-05-27T18:01:07;6.28;;;1.98;;
28796;SDS011;24974;54.444;18.560;2023-05-27T18:03:38;5.75;;;1.90;;
28796;SDS011;24974;54.444;18.560;2023-05-27T18:06:09;5.18;;;1.88;;
28796;SDS011;24974;54.444;18.560;2023-05-27T18:08:40;4.72;;;2.55;;
28796;SDS011;24974;54.444;18.560;2023-05-27T18:11:12;9.63;;;3.38;;
28796;SDS011;24974;54.444;18.560;2023-05-27T18:13:43;5.95;;;2.20;;
28796;SDS011;24974;54.444;18.560;2023-05-27T18:16:13;4.03;;;2.45;;
28796;SDS011;24974;54.444;18.560;2023-05-27T18:18:45;3.25;;;1.95;;
28796;SDS011;24974;54.444;18.560;2023-05-27T18:21:16;5.93;;;2.83;;
28796;SDS011;24974;54.444;18.560;2023-05-27T18:23:47;8.07;;;3.60;;
28796;SDS011;24974;54.444;18.560;2023-05-27T18:26:17;5.93;;;1.95;;
28796;SDS011;24974;54.444;18.560;2023-05-27T18:28:48;5.20;;;2.10;;
28796;SDS011;24974;54.444;18.560;2023-05-27T18:31:19;3.20;;;1.83;;
28796;SDS011;24974;54.444;18.560;2023-05-27T18:33:50;10.25;;;2.28;;
28796;SDS011;24974;54.444;18.560;2023-05-27T18:36:21;8.75;;;1.80;;
28796;SDS011;24974;54.444;18.560;2023-05-27T18:38:52;4.93;;;2.00;;
28796;SDS011;24974;54.444;18.560;2023-05-27T18:41:23;3.90;;;2.10;;
28796;SDS011;24974;54.444;18.560;2023-05-27T18:43:54;8.48;;;2.60;;
28796;SDS011;24974;54.444;18.560;2023-05-27T18:46:25;7.35;;;3.22;;
28796;SDS011;24974;54.444;18.560;2023-05-27T18:48:56;9.98;;;3.85;;
28796;SDS011;24974;54.444;18.560;2023-05-27T18:51:27;4.45;;;2.40;;
28796;SDS011;24974;54.444;18.560;2023-05-27T18:53:57;3.97;;;2.45;;
28796;SDS011;24974;54.444;18.560;2023-05-27T18:56:28;4.45;;;2.60;;
28796;SDS011;24974;54.444;18.560;2023-05-27T18:58:59;6.78;;;2.45;;
28796;SDS011;24974;54.444;18.560;2023-05-27T19:01:30;6.68;;;1.98;;
28796;SDS011;24974;54.444;18.560;2023-05-27T19:04:00;3.45;;;2.10;;
28796;SDS011;24974;54.444;18.560;2023-05-27T19:06:31;7.38;;;2.75;;
28796;SDS011;24974;54.444;18.560;2023-05-27T19:09:03;7.55;;;2.67;;
28796;SDS011;24974;54.444;18.560;2023-05-27T19:11:34;13.55;;;3.45;;
28796;SDS011;24974;54.444;18.560;2023-05-27T19:14:04;14.82;;;3.03;;
28796;SDS011;24974;54.444;18.560;2023-05-27T19:16:36;3.92;;;2.38;;
28796;SDS011;24974;54.444;18.560;2023-05-27T19:19:07;4.13;;;2.15;;
28796;SDS011;24974;54.444;18.560;2023-05-27T19:21:37;4.65;;;2.35;;
28796;SDS011;24974;54.444;18.560;2023-05-27T19:24:09;5.15;;;2.22;;
28796;SDS011;24974;54.444;18.560;2023-05-27T19:26:40;6.90;;;2.03;;
28796;SDS011;24974;54.444;18.560;2023-05-27T19:29:11;6.15;;;2.30;;
28796;SDS011;24974;54.444;18.560;2023-05-27T19:31:42;4.28;;;1.80;;
28796;SDS011;24974;54.444;18.560;2023-05-27T19:34:13;4.05;;;2.53;;
28796;SDS011;24974;54.444;18.560;2023-05-27T19:36:44;6.53;;;2.67;;
28796;SDS011;24974;54.444;18.560;2023-05-27T19:39:15;5.97;;;2.80;;
28796;SDS011;24974;54.444;18.560;2023-05-27T19:41:47;7.30;;;2.60;;
28796;SDS011;24974;54.444;18.560;2023-05-27T19:44:20;2.65;;;2.22;;
28796;SDS011;24974;54.444;18.560;2023-05-27T19:46:53;3.92;;;2.20;;
28796;SDS011;24974;54.444;18.560;2023-05-27T19:49:24;4.47;;;2.65;;
28796;SDS011;24974;54.444;18.560;2023-05-27T19:51:54;4.18;;;2.33;;
28796;SDS011;24974;54.444;18.560;2023-05-27T19:54:25;5.63;;;2.60;;
28796;SDS011;24974;54.444;18.560;2023-05-27T19:56:56;7.00;;;2.83;;
28796;SDS011;24974;54.444;18.560;2023-05-27T19:59:27;4.47;;;2.30;;
28796;SDS011;24974;54.444;18.560;2023-05-27T20:01:57;8.25;;;2.35;;
28796;SDS011;24974;54.444;18.560;2023-05-27T20:04:28;5.85;;;2.85;;
28796;SDS011;24974;54.444;18.560;2023-05-27T20:06:59;4.30;;;2.67;;
28796;SDS011;24974;54.444;18.560;2023-05-27T20:09:30;3.78;;;2.67;;
28796;SDS011;24974;54.444;18.560;2023-05-27T20:12:01;4.95;;;2.65;;
28796;SDS011;24974;54.444;18.560;2023-05-27T20:14:32;5.07;;;3.13;;
28796;SDS011;24974;54.444;18.560;2023-05-27T20:17:03;7.07;;;3.35;;
28796;SDS011;24974;54.444;18.560;2023-05-27T20:19:34;6.28;;;3.22;;
28796;SDS011;24974;54.444;18.560;2023-05-27T20:22:05;13.35;;;5.38;;
28796;SDS011;24974;54.444;18.560;2023-05-27T20:24:36;9.05;;;6.28;;
28796;SDS011;24974;54.444;18.560;2023-05-27T20:27:07;10.85;;;7.38;;
28796;SDS011;24974;54.444;18.560;2023-05-27T20:29:37;9.50;;;6.45;;
28796;SDS011;24974;54.444;18.560;2023-05-27T20:32:08;9.45;;;5.80;;